createdAt,value
2023-01-09T00:01:27.815Z,1.53
2023-01-09T00:03:54.823Z,2.07
2023-01-09T00:06:21.413Z,1.30
2023-01-09T00:08:48.463Z,1.47
2023-01-09T00:11:15.027Z,1.53
2023-01-09T00:13:41.734Z,1.40
2023-01-09T00:16:08.898Z,1.37
2023-01-09T00:18:36.253Z,1.30
2023-01-09T00:21:05.203Z,1.43
2023-01-09T00:23:31.762Z,1.30
2023-01-09T00:26:11.936Z,1.60
2023-01-09T00:28:38.897Z,1.30
2023-01-09T00:31:06.896Z,1.00
2023-01-09T00:33:44.833Z,1.23
2023-01-09T00:36:12.223Z,1.10
2023-01-09T00:38:39.417Z,0.93
2023-01-09T00:41:08.103Z,1.23
2023-01-09T00:43:40.184Z,1.10
2023-01-09T00:46:07.873Z,0.97
2023-01-09T00:48:35.549Z,1.07
2023-01-09T00:51:02.022Z,1.30
2023-01-09T00:53:31.761Z,0.90
2023-01-09T00:56:00.282Z,1.00
2023-01-09T00:58:26.827Z,1.13
2023-01-09T01:00:53.475Z,1.00
2023-01-09T01:03:20.040Z,1.27
2023-01-09T01:06:05.271Z,1.00
2023-01-09T01:08:31.750Z,0.90
2023-01-09T01:10:58.261Z,1.47
2023-01-09T01:13:24.706Z,1.23
2023-01-09T01:15:51.202Z,1.20
2023-01-09T01:18:18.191Z,1.13
2023-01-09T01:20:44.995Z,1.23
2023-01-09T01:23:11.533Z,1.40
2023-01-09T01:25:42.501Z,1.03
2023-01-09T01:28:10.320Z,1.30
2023-01-09T01:30:41.262Z,1.10
2023-01-09T01:33:08.752Z,1.67
2023-01-09T01:35:35.426Z,1.10
2023-01-09T01:38:02.254Z,1.00
2023-01-09T01:40:29.491Z,1.00
2023-01-09T01:42:56.719Z,0.90
2023-01-09T01:45:28.341Z,0.70
2023-01-09T01:48:06.134Z,0.80
2023-01-09T01:50:35.743Z,0.93
2023-01-09T01:53:05.067Z,1.10
2023-01-09T01:55:34.230Z,0.80
2023-01-09T01:58:02.817Z,1.00
2023-01-09T02:00:35.051Z,0.80
2023-01-09T02:03:02.148Z,0.80
2023-01-09T02:05:28.940Z,0.80
2023-01-09T02:07:55.651Z,0.90
2023-01-09T02:10:23.635Z,0.73
2023-01-09T02:12:50.723Z,1.00
2023-01-09T02:15:18.394Z,0.83
2023-01-09T02:17:56.978Z,0.70
2023-01-09T02:20:29.761Z,0.90
2023-01-09T02:23:24.189Z,0.80
2023-01-09T02:26:08.917Z,0.70
2023-01-09T02:28:38.409Z,0.90
2023-01-09T02:31:52.247Z,0.63
2023-01-09T02:34:56.487Z,0.90
2023-01-09T02:37:29.190Z,0.77
2023-01-09T02:40:28.179Z,1.03
2023-01-09T02:42:57.494Z,0.80
2023-01-09T02:45:24.024Z,0.80
2023-01-09T02:47:51.350Z,0.80
2023-01-09T02:51:02.591Z,0.90
2023-01-09T02:53:55.863Z,0.73
2023-01-09T02:56:39.344Z,0.90
2023-01-09T02:59:20.878Z,1.00
2023-01-09T03:02:08.597Z,0.73
2023-01-09T03:04:42.660Z,1.13
2023-01-09T03:07:21.959Z,0.87
2023-01-09T03:09:50.674Z,1.00
2023-01-09T03:12:21.053Z,1.00
2023-01-09T03:14:56.519Z,1.00
2023-01-09T03:17:27.533Z,0.80
2023-01-09T03:19:54.845Z,1.00
2023-01-09T03:22:21.349Z,1.23
2023-01-09T03:24:48.030Z,1.17
2023-01-09T03:27:15.107Z,1.50
2023-01-09T03:29:41.779Z,1.80
2023-01-09T03:32:08.649Z,1.50
2023-01-09T03:34:35.163Z,1.40
2023-01-09T03:37:01.853Z,1.93
2023-01-09T03:39:28.460Z,1.60
2023-01-09T03:41:54.951Z,1.33
2023-01-09T03:44:22.003Z,1.50
2023-01-09T03:46:50.174Z,1.87
2023-01-09T03:49:17.713Z,1.50
2023-01-09T03:51:44.230Z,1.53
2023-01-09T03:54:10.782Z,1.77
2023-01-09T03:56:37.316Z,1.73
2023-01-09T03:59:03.834Z,1.50
2023-01-09T04:01:30.433Z,1.50
2023-01-09T04:03:57.127Z,1.40
2023-01-09T04:06:23.821Z,1.47
2023-01-09T04:08:50.625Z,1.53
2023-01-09T04:11:18.126Z,1.70
2023-01-09T04:13:45.177Z,1.73
2023-01-09T04:16:11.881Z,1.93
2023-01-09T04:18:38.505Z,1.87
2023-01-09T04:21:05.062Z,1.60
2023-01-09T04:23:31.546Z,2.13
2023-01-09T04:25:58.325Z,2.00
2023-01-09T04:28:24.833Z,2.20
2023-01-09T04:30:51.345Z,1.67
2023-01-09T04:33:17.917Z,2.33
2023-01-09T04:35:44.424Z,2.10
2023-01-09T04:38:10.925Z,1.97
2023-01-09T04:40:37.496Z,2.07
2023-01-09T04:43:04.019Z,2.20
2023-01-09T04:45:30.527Z,2.00
2023-01-09T04:47:57.431Z,2.47
2023-01-09T04:50:23.934Z,1.97
2023-01-09T04:52:50.438Z,2.30
2023-01-09T04:55:17.219Z,1.80
2023-01-09T04:57:43.678Z,2.23
2023-01-09T05:00:12.155Z,1.40
2023-01-09T05:02:39.420Z,2.00
2023-01-09T05:05:11.270Z,2.23
2023-01-09T05:07:38.203Z,2.00
2023-01-09T05:10:05.358Z,2.30
2023-01-09T05:12:31.998Z,2.20
2023-01-09T05:14:58.695Z,2.37
2023-01-09T05:17:25.229Z,2.00
2023-01-09T05:19:51.873Z,3.33
2023-01-09T05:22:18.717Z,2.23
2023-01-09T05:24:45.251Z,2.40
2023-01-09T05:27:11.783Z,3.50
2023-01-09T05:29:38.352Z,2.87
2023-01-09T05:32:05.193Z,2.90
2023-01-09T05:34:31.739Z,2.00
2023-01-09T05:36:58.239Z,2.57
2023-01-09T05:39:24.729Z,3.80
2023-01-09T05:41:51.223Z,4.03
2023-01-09T05:44:17.787Z,3.20
2023-01-09T05:46:44.305Z,4.00
2023-01-09T05:49:10.881Z,2.93
2023-01-09T05:51:37.509Z,3.00
2023-01-09T05:54:05.405Z,3.07
2023-01-09T05:56:31.943Z,2.90
2023-01-09T05:58:58.473Z,3.30
2023-01-09T06:01:25.265Z,3.00
2023-01-09T06:03:51.882Z,2.80
2023-01-09T06:06:18.451Z,2.40
2023-01-09T06:08:44.967Z,2.80
2023-01-09T06:11:11.455Z,3.13
2023-01-09T06:13:38.287Z,2.23
2023-01-09T06:16:05.356Z,2.80
2023-01-09T06:18:31.897Z,2.70
2023-01-09T06:20:58.384Z,1.80
2023-01-09T06:23:24.941Z,2.43
2023-01-09T06:25:51.522Z,3.30
2023-01-09T06:28:18.010Z,1.87
2023-01-09T06:30:44.676Z,1.70
2023-01-09T06:33:11.722Z,1.50
2023-01-09T06:35:38.217Z,1.77
2023-01-09T06:38:05.205Z,1.60
2023-01-09T06:40:31.713Z,1.83
2023-01-09T06:42:58.325Z,1.77
2023-01-09T06:45:24.842Z,1.30
2023-01-09T06:47:51.781Z,1.90
2023-01-09T06:50:18.379Z,1.60
2023-01-09T06:52:44.972Z,1.40
2023-01-09T06:55:11.803Z,1.80
2023-01-09T06:57:38.356Z,2.13
2023-01-09T07:00:05.893Z,1.60
2023-01-09T07:02:32.399Z,1.27
2023-01-09T07:04:58.951Z,1.80
2023-01-09T07:07:25.434Z,1.10
2023-01-09T07:09:51.953Z,1.67
2023-01-09T07:12:18.863Z,2.00
2023-01-09T07:14:45.494Z,1.43
2023-01-09T07:17:13.376Z,1.73
2023-01-09T07:19:39.940Z,1.27
2023-01-09T07:22:06.654Z,1.40
2023-01-09T07:24:33.220Z,1.90
2023-01-09T07:26:59.756Z,1.23
2023-01-09T07:29:26.207Z,1.30
2023-01-09T07:31:52.705Z,1.20
2023-01-09T07:34:19.579Z,1.37
2023-01-09T07:36:46.714Z,1.30
2023-01-09T07:39:13.678Z,1.40
2023-01-09T07:41:40.280Z,1.33
2023-01-09T07:44:08.995Z,1.90
2023-01-09T07:46:36.844Z,1.47
2023-01-09T07:49:03.519Z,1.90
2023-01-09T07:51:30.054Z,1.40
2023-01-09T07:53:56.534Z,1.80
2023-01-09T07:56:23.103Z,1.40
2023-01-09T07:58:49.587Z,1.30
2023-01-09T08:01:16.772Z,1.47
2023-01-09T08:03:43.332Z,1.47
2023-01-09T08:06:10.299Z,1.20
2023-01-09T08:08:36.813Z,1.70
2023-01-09T08:11:03.561Z,1.63
2023-01-09T08:13:30.236Z,1.47
2023-01-09T08:15:56.917Z,1.50
2023-01-09T08:18:23.532Z,1.23
2023-01-09T08:20:50.165Z,2.30
2023-01-09T08:23:16.699Z,2.03
2023-01-09T08:25:43.246Z,1.43
2023-01-09T08:28:09.865Z,1.40
2023-01-09T08:30:36.736Z,1.33
2023-01-09T08:33:03.787Z,1.63
2023-01-09T08:35:30.343Z,1.00
2023-01-09T08:37:56.908Z,1.30
2023-01-09T08:40:23.426Z,1.20
2023-01-09T08:43:08.669Z,1.27
2023-01-09T08:45:54.015Z,1.60
2023-01-09T08:48:20.594Z,1.27
2023-01-09T08:50:47.245Z,1.10
2023-01-09T08:53:13.799Z,1.43
2023-01-09T08:55:42.530Z,1.40
2023-01-09T08:58:09.004Z,1.33
2023-01-09T09:00:35.821Z,1.50
2023-01-09T09:03:02.501Z,1.23
2023-01-09T09:05:30.800Z,1.63
2023-01-09T09:07:57.923Z,1.80
2023-01-09T09:10:26.732Z,1.20
2023-01-09T09:12:54.892Z,1.50
2023-01-09T09:15:25.224Z,1.50
2023-01-09T09:18:00.682Z,1.90
2023-01-09T09:20:38.721Z,1.47
2023-01-09T09:23:06.521Z,1.20
2023-01-09T09:25:33.007Z,1.40
2023-01-09T09:28:01.248Z,1.13
2023-01-09T09:30:28.101Z,1.57
2023-01-09T09:32:54.692Z,1.30
2023-01-09T09:35:22.498Z,1.63
2023-01-09T09:38:04.811Z,1.70
2023-01-09T09:40:35.253Z,1.60
2023-01-09T09:43:30.068Z,1.43
2023-01-09T09:46:03.017Z,1.40
2023-01-09T09:48:48.787Z,1.70
2023-01-09T09:51:18.843Z,1.77
2023-01-09T09:53:54.839Z,1.77
2023-01-09T09:56:23.352Z,0.93
2023-01-09T09:58:53.532Z,1.30
2023-01-09T10:01:24.134Z,1.40
2023-01-09T10:04:00.850Z,1.33
2023-01-09T10:06:34.035Z,1.20
2023-01-09T10:09:25.632Z,1.80
2023-01-09T10:11:55.254Z,1.30
2023-01-09T10:14:24.531Z,1.40
2023-01-09T10:17:00.222Z,1.70
2023-01-09T10:19:36.043Z,2.10
2023-01-09T10:22:05.592Z,1.40
2023-01-09T10:24:47.382Z,1.63
2023-01-09T10:27:21.755Z,2.27
2023-01-09T10:30:03.474Z,1.70
2023-01-09T10:32:45.732Z,1.83
2023-01-09T10:35:23.448Z,1.40
2023-01-09T10:37:53.300Z,2.03
2023-01-09T10:40:20.023Z,1.53
2023-01-09T10:42:53.127Z,2.10
2023-01-09T10:45:25.973Z,2.00
2023-01-09T10:47:58.177Z,2.20
2023-01-09T10:50:28.509Z,2.20
2023-01-09T10:52:56.453Z,2.00
2023-01-09T10:55:45.060Z,2.57
2023-01-09T10:58:13.851Z,2.20
2023-01-09T11:00:40.788Z,2.90
2023-01-09T11:03:12.492Z,2.10
2023-01-09T11:05:39.006Z,2.50
2023-01-09T11:08:08.628Z,2.30
2023-01-09T11:10:53.052Z,3.07
2023-01-09T11:13:34.529Z,2.13
2023-01-09T11:16:06.996Z,2.20
2023-01-09T11:18:35.378Z,2.53
2023-01-09T11:21:34.101Z,2.20
2023-01-09T11:24:32.904Z,2.20
2023-01-09T11:27:23.512Z,2.83
2023-01-09T11:30:10.731Z,2.30
2023-01-09T11:32:37.200Z,1.87
2023-01-09T11:35:14.074Z,1.97
2023-01-09T11:37:40.756Z,2.53
2023-01-09T11:40:17.080Z,2.60
2023-01-09T11:43:01.867Z,1.63
2023-01-09T11:45:31.740Z,2.80
2023-01-09T11:47:58.802Z,2.10
2023-01-09T11:50:27.416Z,1.80
2023-01-09T11:53:13.121Z,1.87
2023-01-09T11:55:42.833Z,2.53
2023-01-09T11:58:18.067Z,1.27
2023-01-09T12:01:03.555Z,1.80
2023-01-09T12:03:39.187Z,1.50
2023-01-09T12:06:14.878Z,1.27
2023-01-09T12:09:00.065Z,1.57
2023-01-09T12:11:58.310Z,1.73
2023-01-09T12:14:30.018Z,1.40
2023-01-09T12:17:33.907Z,2.30
2023-01-09T12:20:16.608Z,1.53
2023-01-09T12:23:12.985Z,1.60
2023-01-09T12:25:48.889Z,1.50
2023-01-09T12:28:40.512Z,1.80
2023-01-09T12:31:39.859Z,2.07
2023-01-09T12:34:40.451Z,1.47
2023-01-09T12:37:25.431Z,1.50
2023-01-09T12:40:07.100Z,1.77
2023-01-09T12:42:45.879Z,1.90
2023-01-09T12:45:55.318Z,2.10
2023-01-09T12:48:49.304Z,1.63
2023-01-09T12:51:47.865Z,2.17
2023-01-09T12:54:25.427Z,1.90
2023-01-09T12:56:58.304Z,2.17
2023-01-09T12:59:30.564Z,1.90
2023-01-09T13:02:44.921Z,2.30
2023-01-09T13:05:17.092Z,2.10
2023-01-09T13:07:56.601Z,2.13
2023-01-09T13:10:48.070Z,2.00
2023-01-09T13:13:25.665Z,2.43
2023-01-09T13:15:58.380Z,2.70
2023-01-09T13:18:40.925Z,2.17
2023-01-09T13:21:07.955Z,2.13
2023-01-09T13:23:46.408Z,2.43
2023-01-09T13:26:39.468Z,2.50
2023-01-09T13:29:16.265Z,2.80
2023-01-09T13:32:24.626Z,2.50
2023-01-09T13:34:53.923Z,2.50
2023-01-09T13:37:26.481Z,2.13
2023-01-09T13:39:59.357Z,1.83
2023-01-09T13:42:46.291Z,2.63
2023-01-09T13:45:18.605Z,2.43
2023-01-09T13:47:45.223Z,2.67
2023-01-09T13:50:11.773Z,2.50
2023-01-09T13:52:42.643Z,2.30
2023-01-09T13:55:12.151Z,1.93
2023-01-09T13:57:43.201Z,2.10
2023-01-09T14:00:12.893Z,2.13
2023-01-09T14:02:39.452Z,2.20
2023-01-09T14:05:12.209Z,2.30
2023-01-09T14:07:41.255Z,2.10
2023-01-09T14:10:19.924Z,2.70
2023-01-09T14:12:46.648Z,2.13
2023-01-09T14:15:44.953Z,1.80
2023-01-09T14:18:25.825Z,2.03
2023-01-09T14:20:55.418Z,2.30
2023-01-09T14:23:42.148Z,2.30
2023-01-09T14:26:18.011Z,2.30
2023-01-09T14:28:45.009Z,1.83
2023-01-09T14:31:27.518Z,2.30
2023-01-09T14:34:35.528Z,1.97
2023-01-09T14:37:02.615Z,1.90
2023-01-09T14:39:31.661Z,2.60
2023-01-09T14:42:06.498Z,2.30
2023-01-09T14:45:06.380Z,1.97
2023-01-09T14:47:57.864Z,2.80
2023-01-09T14:50:34.647Z,2.60
2023-01-09T14:53:05.835Z,2.73
2023-01-09T14:55:57.827Z,2.70
2023-01-09T14:58:27.205Z,2.40
2023-01-09T15:01:15.769Z,2.67
2023-01-09T15:03:44.850Z,2.50
2023-01-09T15:06:18.623Z,2.60
2023-01-09T15:08:46.384Z,2.70
2023-01-09T15:11:13.525Z,2.80
2023-01-09T15:13:46.611Z,2.90
2023-01-09T15:16:20.705Z,2.90
2023-01-09T15:18:54.570Z,2.60
2023-01-09T15:21:26.030Z,2.60
2023-01-09T15:23:53.207Z,3.47
2023-01-09T15:26:30.637Z,3.77
2023-01-09T15:29:04.560Z,3.70
2023-01-09T15:31:31.386Z,3.53
2023-01-09T15:33:57.870Z,4.17
2023-01-09T15:36:30.286Z,3.60
2023-01-09T15:38:56.787Z,3.60
2023-01-09T15:41:46.489Z,3.80
2023-01-09T15:44:19.840Z,3.43
2023-01-09T15:46:49.954Z,3.90
2023-01-09T15:49:17.345Z,4.43
2023-01-09T15:51:45.529Z,4.20
2023-01-09T15:54:17.600Z,3.93
2023-01-09T15:56:45.967Z,3.77
2023-01-09T15:59:30.907Z,3.30
2023-01-09T16:02:30.173Z,3.87
2023-01-09T16:04:56.706Z,4.40
2023-01-09T16:07:23.271Z,3.40
2023-01-09T16:09:52.753Z,4.20
2023-01-09T16:12:25.142Z,3.87
2023-01-09T16:14:57.417Z,3.03
2023-01-09T16:17:26.218Z,3.33
2023-01-09T16:19:57.947Z,3.73
2023-01-09T16:22:25.773Z,3.83
2023-01-09T16:24:55.718Z,3.70
2023-01-09T16:27:30.389Z,3.87
2023-01-09T16:30:01.921Z,4.07
2023-01-09T16:32:30.938Z,4.43
2023-01-09T16:35:05.488Z,4.50
2023-01-09T16:37:32.317Z,4.60
2023-01-09T16:40:04.912Z,4.80
2023-01-09T16:42:51.510Z,6.03
2023-01-09T16:45:17.986Z,5.50
2023-01-09T16:47:45.681Z,9.20
2023-01-09T16:50:13.389Z,8.20
2023-01-09T16:52:40.085Z,8.00
2023-01-09T16:55:06.823Z,9.17
2023-01-09T16:57:34.193Z,9.80
2023-01-09T17:00:01.377Z,8.70
2023-01-09T17:02:27.979Z,6.80
2023-01-09T17:04:59.140Z,8.03
2023-01-09T17:07:25.662Z,7.30
2023-01-09T17:09:53.280Z,7.80
2023-01-09T17:12:24.074Z,7.27
2023-01-09T17:14:50.635Z,6.87
2023-01-09T17:17:17.877Z,6.90
2023-01-09T17:19:46.604Z,6.20
2023-01-09T17:22:20.756Z,6.17
2023-01-09T17:25:08.648Z,6.20
2023-01-09T17:27:55.625Z,5.77
2023-01-09T17:30:22.119Z,7.97
2023-01-09T17:32:48.914Z,7.20
2023-01-09T17:35:16.230Z,6.63
2023-01-09T17:37:42.938Z,6.67
2023-01-09T17:40:18.322Z,6.73
2023-01-09T17:42:44.806Z,6.90
2023-01-09T17:45:11.652Z,6.07
2023-01-09T17:47:38.403Z,6.43
2023-01-09T17:50:05.899Z,7.40
2023-01-09T17:52:33.055Z,7.20
2023-01-09T17:55:05.219Z,7.27
2023-01-09T17:57:32.704Z,6.53
2023-01-09T17:59:59.199Z,7.50
2023-01-09T18:02:25.824Z,7.00
2023-01-09T18:04:52.520Z,7.03
2023-01-09T18:07:19.422Z,7.07
2023-01-09T18:09:45.995Z,7.00
2023-01-09T18:12:12.652Z,8.07
2023-01-09T18:14:40.655Z,7.87
2023-01-09T18:17:07.496Z,7.50
2023-01-09T18:19:34.140Z,8.87
2023-01-09T18:22:00.629Z,7.30
2023-01-09T18:24:27.248Z,7.63
2023-01-09T18:26:54.345Z,8.43
2023-01-09T18:29:21.339Z,8.07
2023-01-09T18:31:48.870Z,7.53
2023-01-09T18:34:15.360Z,8.43
2023-01-09T18:36:41.990Z,7.17
2023-01-09T18:39:09.540Z,7.20
2023-01-09T18:41:36.428Z,7.00
2023-01-09T18:44:02.994Z,7.87
2023-01-09T18:46:32.704Z,7.77
2023-01-09T18:49:01.616Z,5.90
2023-01-09T18:51:29.102Z,7.87
2023-01-09T18:53:56.084Z,7.00
2023-01-09T18:56:23.320Z,6.10
2023-01-09T18:58:52.594Z,7.17
2023-01-09T19:01:19.521Z,7.93
2023-01-09T19:03:46.160Z,6.50
2023-01-09T19:06:13.137Z,6.87
2023-01-09T19:08:39.950Z,6.37
2023-01-09T19:11:06.672Z,7.07
2023-01-09T19:13:35.196Z,7.63
2023-01-09T19:16:02.557Z,6.50
2023-01-09T19:18:32.318Z,6.83
2023-01-09T19:20:58.806Z,6.77
2023-01-09T19:23:25.295Z,7.20
2023-01-09T19:25:53.051Z,6.50
2023-01-09T19:28:20.766Z,6.03
2023-01-09T19:30:47.507Z,4.80
2023-01-09T19:33:14.219Z,5.10
2023-01-09T19:35:40.779Z,4.20
2023-01-09T19:38:07.793Z,5.03
2023-01-09T19:40:35.759Z,3.93
2023-01-09T19:43:02.211Z,5.23
2023-01-09T19:45:28.822Z,4.80
2023-01-09T19:47:56.351Z,4.90
2023-01-09T19:50:22.958Z,4.67
2023-01-09T19:52:50.849Z,4.67
2023-01-09T19:55:17.703Z,4.73
2023-01-09T19:57:45.086Z,3.77
2023-01-09T20:00:12.867Z,3.70
2023-01-09T20:02:40.579Z,3.83
2023-01-09T20:05:07.767Z,3.97
2023-01-09T20:07:34.873Z,4.87
2023-01-09T20:10:01.435Z,4.83
2023-01-09T20:12:27.940Z,4.90
2023-01-09T20:14:55.038Z,5.50
2023-01-09T20:17:21.656Z,5.30
2023-01-09T20:19:49.240Z,5.20
2023-01-09T20:22:15.746Z,5.40
2023-01-09T20:24:42.290Z,6.40
2023-01-09T20:27:08.978Z,6.60
2023-01-09T20:29:35.525Z,6.70
2023-01-09T20:32:06.222Z,8.20
2023-01-09T20:34:32.698Z,7.00
2023-01-09T20:36:59.448Z,7.73
2023-01-09T20:39:26.292Z,8.33
2023-01-09T20:41:52.845Z,7.87
2023-01-09T20:44:19.418Z,7.40
2023-01-09T20:46:49.399Z,8.00
2023-01-09T20:49:18.009Z,9.10
2023-01-09T20:51:47.116Z,8.67
2023-01-09T20:54:14.613Z,8.40
2023-01-09T20:56:41.337Z,9.73
2023-01-09T20:59:11.987Z,10.77
2023-01-09T21:01:40.192Z,10.33
2023-01-09T21:04:08.629Z,10.20
2023-01-09T21:06:35.916Z,10.53
2023-01-09T21:09:04.035Z,9.70
2023-01-09T21:11:30.527Z,10.00
2023-01-09T21:13:57.447Z,11.40
2023-01-09T21:16:24.679Z,11.20
2023-01-09T21:18:52.562Z,11.17
2023-01-09T21:21:22.243Z,12.10
2023-01-09T21:23:53.585Z,11.70
2023-01-09T21:26:26.544Z,12.30
2023-01-09T21:28:55.273Z,11.20
2023-01-09T21:31:25.261Z,12.20
2023-01-09T21:33:54.361Z,11.53
2023-01-09T21:36:21.799Z,10.97
2023-01-09T21:38:48.539Z,12.23
2023-01-09T21:41:35.304Z,12.30
2023-01-09T21:44:20.486Z,11.63
2023-01-09T21:46:53.358Z,12.83
2023-01-09T21:49:20.726Z,12.00
2023-01-09T21:51:47.518Z,11.10
2023-01-09T21:54:14.200Z,12.03
2023-01-09T21:56:40.736Z,12.30
2023-01-09T21:59:07.417Z,11.83
2023-01-09T22:01:33.941Z,11.27
2023-01-09T22:04:00.649Z,11.40
2023-01-09T22:06:28.403Z,12.33
2023-01-09T22:08:55.900Z,11.37
2023-01-09T22:11:22.713Z,11.20
2023-01-09T22:13:49.766Z,10.90
2023-01-09T22:16:17.046Z,11.40
2023-01-09T22:18:43.935Z,11.07
2023-01-09T22:21:10.801Z,9.37
2023-01-09T22:23:37.258Z,11.80
2023-01-09T22:26:11.369Z,10.67
2023-01-09T22:28:38.350Z,9.60
2023-01-09T22:31:09.536Z,9.43
2023-01-09T22:33:36.649Z,8.47
2023-01-09T22:36:11.476Z,8.50
2023-01-09T22:38:38.300Z,8.83
2023-01-09T22:41:05.365Z,10.30
2023-01-09T22:43:32.108Z,9.37
2023-01-09T22:46:05.527Z,9.07
2023-01-09T22:48:33.716Z,9.43
2023-01-09T22:51:05.908Z,9.43
2023-01-09T22:53:32.526Z,8.63
2023-01-09T22:56:03.884Z,8.40
2023-01-09T22:58:30.984Z,9.07
2023-01-09T23:00:57.812Z,8.87
2023-01-09T23:03:24.637Z,9.77
2023-01-09T23:06:05.341Z,9.07
2023-01-09T23:08:33.600Z,11.00
2023-01-09T23:11:00.609Z,9.60
2023-01-09T23:13:27.506Z,9.97
2023-01-09T23:15:54.484Z,9.67
2023-01-09T23:18:21.396Z,9.80
2023-01-09T23:20:52.849Z,9.47
2023-01-09T23:23:21.021Z,9.80
2023-01-09T23:25:53.358Z,10.53
2023-01-09T23:28:20.281Z,10.77
2023-01-09T23:30:47.434Z,9.67
2023-01-09T23:33:16.454Z,8.67
2023-01-09T23:35:44.152Z,9.53
2023-01-09T23:38:13.658Z,10.30
2023-01-09T23:40:43.998Z,9.90
2023-01-09T23:43:12.118Z,10.30
2023-01-09T23:45:43.494Z,9.40
2023-01-09T23:48:14.545Z,9.50
2023-01-09T23:50:48.592Z,10.60
2023-01-09T23:53:15.255Z,9.90
2023-01-09T23:55:41.785Z,9.17
2023-01-09T23:58:08.645Z,8.93
